createdAt,value
2022-08-01T00:00:38.260Z,98886.18
2022-08-01T00:03:06.013Z,98884.46
2022-08-01T00:05:33.470Z,98885.37
2022-08-01T00:08:00.824Z,98884.45
2022-08-01T00:10:28.691Z,98878.14
2022-08-01T00:12:55.943Z,98882.15
2022-08-01T00:15:23.195Z,98878.84
2022-08-01T00:17:50.451Z,98882.80
2022-08-01T00:20:17.635Z,98879.69
2022-08-01T00:22:44.960Z,98880.81
2022-08-01T00:25:12.205Z,98880.29
2022-08-01T00:27:39.467Z,98881.54
2022-08-01T00:30:11.290Z,98884.55
2022-08-01T00:32:44.407Z,98881.21
2022-08-01T00:35:12.102Z,98878.20
2022-08-01T00:37:39.325Z,98880.02
2022-08-01T00:40:07.902Z,98877.89
2022-08-01T00:42:37.155Z,98875.88
2022-08-01T00:45:08.454Z,98875.33
2022-08-01T00:47:35.802Z,98871.26
2022-08-01T00:50:05.873Z,98863.87
2022-08-01T00:52:34.823Z,98866.10
2022-08-01T00:55:02.578Z,98863.73
2022-08-01T00:58:02.203Z,98860.84
2022-08-01T01:00:18.686Z,98860.79
2022-08-01T01:02:54.542Z,98860.45
2022-08-01T01:05:22.105Z,98866.12
2022-08-01T01:07:57.649Z,98870.95
2022-08-01T01:11:02.315Z,98866.14
2022-08-01T01:13:36.795Z,98859.90
2022-08-01T01:16:20.699Z,98858.98
2022-08-01T01:18:54.163Z,98860.10
2022-08-01T01:21:22.603Z,98856.92
2022-08-01T01:24:16.595Z,98852.97
2022-08-01T01:26:49.512Z,98855.62
2022-08-01T01:29:27.082Z,98856.52
2022-08-01T01:32:05.633Z,98856.23
2022-08-01T01:34:39.412Z,98853.56
2022-08-01T01:37:12.281Z,98856.34
2022-08-01T01:39:45.276Z,98853.33
2022-08-01T01:42:22.348Z,98854.14
2022-08-01T01:44:51.278Z,98852.59
2022-08-01T01:47:19.222Z,98857.31
2022-08-01T01:49:50.147Z,98862.05
2022-08-01T01:52:19.691Z,98862.32
2022-08-01T01:54:53.046Z,98865.39
2022-08-01T01:57:22.392Z,98876.73
2022-08-01T01:59:52.150Z,98873.36
2022-08-01T02:02:20.784Z,98873.70
2022-08-01T02:04:49.847Z,98873.12
2022-08-01T02:07:23.858Z,98873.62
2022-08-01T02:09:53.873Z,98873.54
2022-08-01T02:12:25.530Z,98871.76
2022-08-01T02:14:54.717Z,98868.99
2022-08-01T02:17:23.140Z,98870.38
2022-08-01T02:19:50.698Z,98870.45
2022-08-01T02:22:28.763Z,98873.40
2022-08-01T02:25:05.128Z,98868.45
2022-08-01T02:27:43.094Z,98867.73
2022-08-01T02:30:13.604Z,98870.67
2022-08-01T02:33:16.122Z,98873.71
2022-08-01T02:36:29.805Z,98870.30
2022-08-01T02:38:38.906Z,98867.02
2022-08-01T02:41:14.712Z,98863.28
2022-08-01T02:43:47.052Z,98868.54
2022-08-01T02:46:36.440Z,98863.42
2022-08-01T02:49:08.341Z,98864.89
2022-08-01T02:51:37.563Z,98862.30
2022-08-01T02:54:08.012Z,98862.89
2022-08-01T02:56:37.090Z,98862.77
2022-08-01T02:59:13.778Z,98860.41
2022-08-01T03:01:44.672Z,98861.74
2022-08-01T03:04:12.869Z,98862.08
2022-08-01T03:06:41.333Z,98860.94
2022-08-01T03:09:14.220Z,98862.91
2022-08-01T03:11:46.452Z,98860.16
2022-08-01T03:14:15.495Z,98863.14
2022-08-01T03:16:46.885Z,98865.89
2022-08-01T03:19:15.224Z,98866.75
2022-08-01T03:21:44.727Z,98873.58
2022-08-01T03:24:14.245Z,98873.80
2022-08-01T03:26:43.019Z,98873.05
2022-08-01T03:29:17.338Z,98872.08
2022-08-01T03:31:47.559Z,98877.50
2022-08-01T03:34:14.959Z,98878.42
2022-08-01T03:37:04.939Z,98875.49
2022-08-01T03:39:37.292Z,98872.39
2022-08-01T03:42:14.111Z,98874.84
2022-08-01T03:44:42.630Z,98872.73
2022-08-01T03:47:11.417Z,98869.77
2022-08-01T03:49:46.054Z,98869.66
2022-08-01T03:52:15.240Z,98868.98
2022-08-01T03:54:48.499Z,98867.59
2022-08-01T03:57:35.643Z,98870.83
2022-08-01T04:00:10.409Z,98870.13
2022-08-01T04:02:41.391Z,98871.48
2022-08-01T04:05:09.128Z,98868.73
2022-08-01T04:07:41.247Z,98869.54
2022-08-01T04:10:09.323Z,98872.35
2022-08-01T04:12:36.575Z,98870.62
2022-08-01T04:15:05.225Z,98873.23
2022-08-01T04:17:32.511Z,98873.71
2022-08-01T04:19:59.660Z,98875.30
2022-08-01T04:22:27.772Z,98870.27
2022-08-01T04:24:58.439Z,98873.14
2022-08-01T04:27:51.554Z,98869.75
2022-08-01T04:30:22.259Z,98872.14
2022-08-01T04:32:51.707Z,98868.63
2022-08-01T04:35:23.466Z,98873.56
2022-08-01T04:38:11.159Z,98871.05
2022-08-01T04:40:39.217Z,98869.10
2022-08-01T04:43:07.086Z,98874.72
2022-08-01T04:45:35.401Z,98875.36
2022-08-01T04:48:03.329Z,98871.95
2022-08-01T04:50:30.685Z,98876.05
2022-08-01T04:52:58.452Z,98875.65
2022-08-01T04:55:25.598Z,98874.02
2022-08-01T04:57:52.952Z,98867.90
2022-08-01T05:00:20.106Z,98870.15
2022-08-01T05:02:47.970Z,98868.69
2022-08-01T05:05:16.078Z,98870.95
2022-08-01T05:07:45.114Z,98865.36
2022-08-01T05:10:13.322Z,98865.60
2022-08-01T05:12:40.462Z,98867.76
2022-08-01T05:15:13.149Z,98867.65
2022-08-01T05:17:45.509Z,98869.52
2022-08-01T05:20:13.581Z,98868.65
2022-08-01T05:22:41.447Z,98869.10
2022-08-01T05:25:09.320Z,98865.04
2022-08-01T05:27:42.544Z,98862.08
2022-08-01T05:30:10.986Z,98858.21
2022-08-01T05:32:39.299Z,98859.33
2022-08-01T05:35:07.640Z,98859.84
2022-08-01T05:37:35.042Z,98859.02
2022-08-01T05:40:03.066Z,98852.33
2022-08-01T05:42:30.215Z,98855.20
2022-08-01T05:44:57.575Z,98856.39
2022-08-01T05:47:25.031Z,98853.45
2022-08-01T05:49:52.279Z,98851.70
2022-08-01T05:52:19.531Z,98854.10
2022-08-01T05:54:46.727Z,98861.84
2022-08-01T05:57:14.826Z,98859.36
2022-08-01T05:59:42.571Z,98860.74
2022-08-01T06:02:10.133Z,98861.34
2022-08-01T06:04:37.737Z,98861.88
2022-08-01T06:07:04.990Z,98855.59
2022-08-01T06:09:32.360Z,98853.65
2022-08-01T06:11:59.599Z,98858.90
2022-08-01T06:14:26.957Z,98860.72
2022-08-01T06:16:54.304Z,98860.56
2022-08-01T06:19:21.453Z,98859.23
2022-08-01T06:21:48.811Z,98853.60
2022-08-01T06:24:16.070Z,98849.57
2022-08-01T06:26:43.722Z,98845.30
2022-08-01T06:29:10.884Z,98845.73
2022-08-01T06:31:39.572Z,98845.70
2022-08-01T06:34:06.708Z,98840.09
2022-08-01T06:36:33.960Z,98838.06
2022-08-01T06:39:01.108Z,98833.13
2022-08-01T06:41:28.257Z,98834.04
2022-08-01T06:43:55.515Z,98835.95
2022-08-01T06:48:29.022Z,98822.52
2022-08-01T06:51:09.213Z,98817.79
2022-08-01T06:53:38.223Z,98815.83
2022-08-01T06:56:07.317Z,98815.95
2022-08-01T06:58:35.770Z,98812.84
2022-08-01T07:01:07.219Z,98816.54
2022-08-01T07:03:53.431Z,98812.39
2022-08-01T07:06:26.793Z,98811.59
2022-08-01T07:08:54.655Z,98811.14
2022-08-01T07:11:23.649Z,98813.41
2022-08-01T07:13:51.413Z,98822.10
2022-08-01T07:16:19.279Z,98819.94
2022-08-01T07:18:46.641Z,98813.02
2022-08-01T07:21:38.368Z,98811.21
2022-08-01T07:24:01.208Z,98806.73
2022-08-01T07:26:28.667Z,98808.42
2022-08-01T07:28:56.237Z,98807.02
2022-08-01T07:31:26.535Z,98805.19
2022-08-01T07:33:55.853Z,98802.19
2022-08-01T07:36:23.103Z,98800.01
2022-08-01T07:38:50.356Z,98800.81
2022-08-01T07:41:17.603Z,98802.73
2022-08-01T07:43:54.382Z,98807.30
2022-08-01T07:46:24.496Z,98805.25
2022-08-01T07:48:51.791Z,98806.35
2022-08-01T07:51:18.999Z,98804.16
2022-08-01T07:53:46.152Z,98802.73
2022-08-01T07:56:13.403Z,98804.45
2022-08-01T07:58:40.655Z,98804.60
2022-08-01T08:01:08.112Z,98802.48
2022-08-01T08:03:35.367Z,98804.55
2022-08-01T08:06:02.616Z,98797.50
2022-08-01T08:08:30.383Z,98802.06
2022-08-01T08:10:57.530Z,98791.98
2022-08-01T08:13:24.682Z,98791.20
2022-08-01T08:15:52.035Z,98790.20
2022-08-01T08:18:19.286Z,98793.40
2022-08-01T08:20:46.744Z,98804.19
2022-08-01T08:23:42.052Z,98807.80
2022-08-01T08:26:12.277Z,98797.68
2022-08-01T08:28:40.627Z,98795.95
2022-08-01T08:31:24.929Z,98796.43
2022-08-01T08:33:53.384Z,98793.73
2022-08-01T08:36:20.537Z,98789.40
2022-08-01T08:38:48.093Z,98793.60
2022-08-01T08:41:20.689Z,98789.23
2022-08-01T08:43:48.743Z,98790.66
2022-08-01T08:46:17.324Z,98789.39
2022-08-01T08:48:45.548Z,98790.34
2022-08-01T08:51:14.491Z,98793.54
2022-08-01T08:53:45.781Z,98793.47
2022-08-01T08:56:15.041Z,98793.77
2022-08-01T08:58:44.924Z,98797.86
2022-08-01T09:01:13.681Z,98793.85
2022-08-01T09:03:41.982Z,98789.77
2022-08-01T09:06:09.372Z,98783.73
2022-08-01T09:08:36.928Z,98786.75
2022-08-01T09:11:05.826Z,98785.43
2022-08-01T09:13:33.173Z,98791.86
2022-08-01T09:16:00.329Z,98782.70
2022-08-01T09:18:44.880Z,98784.40
2022-08-01T09:21:20.638Z,98782.83
2022-08-01T09:23:55.359Z,98785.50
2022-08-01T09:26:30.219Z,98788.91
2022-08-01T09:29:00.485Z,98796.95
2022-08-01T09:31:38.306Z,98785.32
2022-08-01T09:34:06.627Z,98780.77
2022-08-01T09:36:47.459Z,98783.76
2022-08-01T09:39:16.037Z,98783.92
2022-08-01T09:41:43.195Z,98786.26
2022-08-01T09:44:10.488Z,98781.89
2022-08-01T09:46:54.080Z,98783.80
2022-08-01T09:49:50.998Z,98789.30
2022-08-01T09:52:26.084Z,98789.31
2022-08-01T09:55:02.282Z,98782.92
2022-08-01T09:57:31.069Z,98785.48
2022-08-01T10:00:01.856Z,98789.49
2022-08-01T10:02:41.822Z,98785.64
2022-08-01T10:05:18.921Z,98782.54
2022-08-01T10:08:07.620Z,98786.02
2022-08-01T10:10:37.455Z,98781.88
2022-08-01T10:13:05.623Z,98783.44
2022-08-01T10:15:36.538Z,98785.96
2022-08-01T10:18:16.355Z,98784.21
2022-08-01T10:20:56.445Z,98782.48
2022-08-01T10:23:39.733Z,98780.88
2022-08-01T10:26:09.300Z,98778.00
2022-08-01T10:28:38.638Z,98771.41
2022-08-01T10:31:12.641Z,98767.77
2022-08-01T10:33:50.457Z,98764.61
2022-08-01T10:36:26.107Z,98766.45
2022-08-01T10:38:56.392Z,98766.42
2022-08-01T10:41:25.338Z,98764.98
2022-08-01T10:43:54.876Z,98766.23
2022-08-01T10:46:22.744Z,98757.08
2022-08-01T10:48:58.811Z,98751.76
2022-08-01T10:51:51.571Z,98756.46
2022-08-01T10:54:15.863Z,98758.14
2022-08-01T10:56:51.807Z,98758.27
2022-08-01T10:59:50.181Z,98758.81
2022-08-01T11:02:32.134Z,98756.09
2022-08-01T11:05:05.744Z,98756.52
2022-08-01T11:07:45.717Z,98754.70
2022-08-01T11:10:41.847Z,98751.42
2022-08-01T11:13:13.605Z,98754.00
2022-08-01T11:15:50.344Z,98754.70
2022-08-01T11:18:38.317Z,98752.70
2022-08-01T11:21:57.686Z,98746.91
2022-08-01T11:23:54.735Z,98751.66
2022-08-01T11:26:29.084Z,98759.31
2022-08-01T11:29:23.219Z,98755.31
2022-08-01T11:31:51.535Z,98753.09
2022-08-01T11:34:18.970Z,98752.72
2022-08-01T11:37:03.145Z,98751.44
2022-08-01T11:39:31.840Z,98760.84
2022-08-01T11:42:19.431Z,98759.29
2022-08-01T11:44:52.612Z,98755.11
2022-08-01T11:47:40.049Z,98751.21
2022-08-01T11:50:07.915Z,98753.33
2022-08-01T11:52:37.383Z,98752.66
2022-08-01T11:55:04.576Z,98752.39
2022-08-01T11:57:39.027Z,98754.95
2022-08-01T12:00:15.550Z,98751.27
2022-08-01T12:02:46.296Z,98750.44
2022-08-01T12:05:16.105Z,98750.98
2022-08-01T12:07:46.034Z,98746.15
2022-08-01T12:10:16.554Z,98749.35
2022-08-01T12:12:45.340Z,98747.78
2022-08-01T12:15:13.413Z,98745.56
2022-08-01T12:17:45.865Z,98751.06
2022-08-01T12:20:29.820Z,98748.23
2022-08-01T12:23:07.009Z,98753.43
2022-08-01T12:25:34.919Z,98753.92
2022-08-01T12:28:04.636Z,98759.05
2022-08-01T12:30:36.352Z,98757.98
2022-08-01T12:33:10.261Z,98755.19
2022-08-01T12:35:39.706Z,98749.87
2022-08-01T12:38:15.508Z,98748.09
2022-08-01T12:40:45.861Z,98751.48
2022-08-01T12:43:21.270Z,98751.58
2022-08-01T12:45:59.508Z,98751.70
2022-08-01T12:48:27.967Z,98753.16
2022-08-01T12:50:58.931Z,98744.56
2022-08-01T12:53:26.997Z,98744.61
2022-08-01T12:55:58.359Z,98740.30
2022-08-01T12:58:36.294Z,98739.91
2022-08-01T13:01:06.750Z,98745.54
2022-08-01T13:03:34.086Z,98735.60
2022-08-01T13:06:02.137Z,98747.05
2022-08-01T13:08:34.550Z,98744.44
2022-08-01T13:11:15.838Z,98740.39
2022-08-01T13:13:48.501Z,98732.70
2022-08-01T13:16:30.167Z,98732.81
2022-08-01T13:19:07.110Z,98734.92
2022-08-01T13:21:53.721Z,98735.71
2022-08-01T13:24:29.881Z,98738.13
2022-08-01T13:27:04.279Z,98743.46
2022-08-01T13:29:33.603Z,98737.71
2022-08-01T13:32:13.047Z,98738.48
2022-08-01T13:35:06.131Z,98734.73
2022-08-01T13:37:33.722Z,98728.77
2022-08-01T13:40:00.976Z,98727.27
2022-08-01T13:42:30.406Z,98729.88
2022-08-01T13:44:57.731Z,98724.29
2022-08-01T13:47:31.695Z,98724.67
2022-08-01T13:50:04.156Z,98724.83
2022-08-01T13:52:32.700Z,98728.26
2022-08-01T13:55:02.613Z,98730.52
2022-08-01T13:57:36.813Z,98726.00
2022-08-01T14:00:09.710Z,98728.79
2022-08-01T14:02:39.728Z,98730.51
2022-08-01T14:05:07.493Z,98725.83
2022-08-01T14:07:34.847Z,98724.91
2022-08-01T14:10:18.299Z,98723.79
2022-08-01T14:12:48.930Z,98725.48
2022-08-01T14:15:36.560Z,98728.78
2022-08-01T14:18:05.866Z,98730.45
2022-08-01T14:20:34.857Z,98731.14
2022-08-01T14:23:02.390Z,98728.41
2022-08-01T14:26:05.499Z,98730.98
2022-08-01T14:28:17.376Z,98737.17
2022-08-01T14:30:44.833Z,98736.85
2022-08-01T14:33:13.415Z,98732.58
2022-08-01T14:36:06.115Z,98739.62
2022-08-01T14:38:31.117Z,98741.77
2022-08-01T14:41:00.469Z,98747.20
2022-08-01T14:43:32.887Z,98748.25
2022-08-01T14:46:01.580Z,98744.42
2022-08-01T14:48:30.143Z,98744.05
2022-08-01T14:50:58.593Z,98737.48
2022-08-01T14:53:26.086Z,98735.82
2022-08-01T14:55:53.296Z,98732.83
2022-08-01T14:58:20.390Z,98744.70
2022-08-01T15:00:48.160Z,98738.80
2022-08-01T15:03:15.464Z,98737.98
2022-08-01T15:05:42.715Z,98732.45
2022-08-01T15:08:09.966Z,98733.69
2022-08-01T15:10:37.320Z,98737.73
2022-08-01T15:13:04.571Z,98736.27
2022-08-01T15:15:32.034Z,98738.46
2022-08-01T15:17:59.484Z,98737.58
2022-08-01T15:20:28.172Z,98742.29
2022-08-01T15:22:55.523Z,98751.00
2022-08-01T15:25:22.718Z,98748.42
2022-08-01T15:27:49.926Z,98754.96
2022-08-01T15:30:17.177Z,98750.46
2022-08-01T15:32:51.115Z,98743.91
2022-08-01T15:35:18.751Z,98749.83
2022-08-01T15:37:46.021Z,98740.99
2022-08-01T15:40:13.356Z,98740.10
2022-08-01T15:42:40.822Z,98744.05
2022-08-01T15:45:20.631Z,98744.26
2022-08-01T15:47:56.515Z,98746.23
2022-08-01T15:50:23.765Z,98740.55
2022-08-01T15:52:50.919Z,98747.40
2022-08-01T15:55:18.270Z,98754.88
2022-08-01T15:57:45.522Z,98753.77
2022-08-01T16:00:13.564Z,98758.81
2022-08-01T16:02:41.664Z,98760.33
2022-08-01T16:05:09.631Z,98765.13
2022-08-01T16:07:37.190Z,98767.25
2022-08-01T16:10:24.415Z,98774.65
2022-08-01T16:12:51.611Z,98778.76
2022-08-01T16:15:18.917Z,98780.25
2022-08-01T16:17:46.166Z,98780.39
2022-08-01T16:20:13.368Z,98778.60
2022-08-01T16:22:40.569Z,98779.59
2022-08-01T16:25:08.180Z,98782.74
2022-08-01T16:27:35.380Z,98786.35
2022-08-01T16:30:06.849Z,98790.42
2022-08-01T16:32:37.588Z,98798.40
2022-08-01T16:35:13.455Z,98795.35
2022-08-01T16:37:41.283Z,98801.09
2022-08-01T16:40:09.047Z,98798.90
2022-08-01T16:42:36.304Z,98802.91
2022-08-01T16:45:12.816Z,98801.19
2022-08-01T16:47:42.273Z,98801.14
2022-08-01T16:50:12.289Z,98803.08
2022-08-01T16:52:41.977Z,98808.35
2022-08-01T16:55:11.447Z,98806.23
2022-08-01T16:57:38.760Z,98807.64
2022-08-01T17:00:21.161Z,98811.92
2022-08-01T17:02:48.835Z,98813.70
2022-08-01T17:05:16.385Z,98815.35
2022-08-01T17:07:44.047Z,98815.69
2022-08-01T17:10:12.116Z,98818.13
2022-08-01T17:12:40.411Z,98820.89
2022-08-01T17:15:08.773Z,98819.86
2022-08-01T17:17:36.232Z,98822.54
2022-08-01T17:20:04.094Z,98817.97
2022-08-01T17:22:31.245Z,98821.85
2022-08-01T17:24:58.453Z,98819.42
2022-08-01T17:27:25.663Z,98815.39
2022-08-01T17:29:53.103Z,98814.13
2022-08-01T17:32:20.459Z,98811.92
2022-08-01T17:34:47.710Z,98811.52
2022-08-01T17:37:14.864Z,98813.70
2022-08-01T17:39:42.110Z,98815.83
2022-08-01T17:42:11.052Z,98821.25
2022-08-01T17:44:38.976Z,98828.09
2022-08-01T17:47:09.099Z,98827.57
2022-08-01T17:49:54.283Z,98839.57
2022-08-01T17:52:22.640Z,98847.34
2022-08-01T17:54:49.994Z,98844.20
2022-08-01T17:57:17.143Z,98848.88
2022-08-01T17:59:45.240Z,98852.11
2022-08-01T18:02:12.467Z,98853.15
2022-08-01T18:04:44.099Z,98854.16
2022-08-01T18:07:12.796Z,98857.35
2022-08-01T18:09:45.532Z,98857.45
2022-08-01T18:12:14.007Z,98861.34
2022-08-01T18:14:43.840Z,98861.53
2022-08-01T18:17:12.775Z,98862.96
2022-08-01T18:19:40.536Z,98864.38
2022-08-01T18:22:31.361Z,98866.21
2022-08-01T18:24:55.112Z,98870.15
2022-08-01T18:27:22.262Z,98872.98
2022-08-01T18:29:49.410Z,98876.48
2022-08-01T18:32:16.662Z,98880.42
2022-08-01T18:34:43.751Z,98884.73
2022-08-01T18:37:14.014Z,98884.73
2022-08-01T18:39:43.813Z,98886.48
2022-08-01T18:42:11.305Z,98886.95
2022-08-01T18:44:38.457Z,98883.82
2022-08-01T18:47:06.029Z,98884.84
2022-08-01T18:49:33.606Z,98883.08
2022-08-01T18:52:01.031Z,98890.16
2022-08-01T18:54:28.297Z,98892.17
2022-08-01T18:56:55.489Z,98892.25
2022-08-01T18:59:22.888Z,98891.08
2022-08-01T19:01:50.208Z,98885.27
2022-08-01T19:04:17.542Z,98886.76
2022-08-01T19:06:47.513Z,98887.77
2022-08-01T19:09:20.318Z,98883.83
2022-08-01T19:11:48.158Z,98884.92
2022-08-01T19:14:15.614Z,98887.65
2022-08-01T19:16:42.866Z,98890.80
2022-08-01T19:19:10.017Z,98888.64
2022-08-01T19:21:42.941Z,98886.35
2022-08-01T19:24:23.444Z,98881.12
2022-08-01T19:26:59.675Z,98880.06
2022-08-01T19:29:37.939Z,98880.12
2022-08-01T19:32:09.076Z,98880.23
2022-08-01T19:34:44.193Z,98878.65
2022-08-01T19:37:11.778Z,98877.85
2022-08-01T19:39:43.959Z,98882.36
2022-08-01T19:42:13.009Z,98883.61
2022-08-01T19:44:40.703Z,98892.16
2022-08-01T19:47:09.860Z,98895.70
2022-08-01T19:49:37.713Z,98892.86
2022-08-01T19:52:05.895Z,98887.82
2022-08-01T19:54:38.047Z,98890.92
2022-08-01T19:57:07.299Z,98892.56
2022-08-01T19:59:35.995Z,98892.31
2022-08-01T20:02:04.317Z,98895.63
2022-08-01T20:04:33.780Z,98896.93
2022-08-01T20:07:01.130Z,98902.23
2022-08-01T20:09:28.890Z,98906.20
2022-08-01T20:11:56.388Z,98901.52
2022-08-01T20:14:26.876Z,98900.90
2022-08-01T20:16:56.687Z,98900.39
2022-08-01T20:19:25.985Z,98898.81
2022-08-01T20:22:08.095Z,98894.86
2022-08-01T20:24:43.446Z,98895.75
2022-08-01T20:27:12.950Z,98897.23
2022-08-01T20:29:41.515Z,98895.43
2022-08-01T20:32:09.487Z,98893.30
2022-08-01T20:34:38.786Z,98886.80
2022-08-01T20:37:13.318Z,98886.86
2022-08-01T20:39:44.933Z,98884.73
2022-08-01T20:42:15.040Z,98890.41
2022-08-01T20:44:43.665Z,98891.21
2022-08-01T20:47:11.556Z,98891.62
2022-08-01T20:49:39.209Z,98892.39
2022-08-01T20:52:12.160Z,98892.90
2022-08-01T20:54:41.991Z,98892.73
2022-08-01T20:57:22.153Z,98894.16
2022-08-01T21:00:02.305Z,98894.20
2022-08-01T21:02:38.689Z,98899.30
2022-08-01T21:05:07.044Z,98895.02
2022-08-01T21:07:50.377Z,98899.69
2022-08-01T21:10:20.803Z,98902.32
2022-08-01T21:13:06.391Z,98905.34
2022-08-01T21:16:11.155Z,98910.46
2022-08-01T21:19:18.664Z,98902.02
2022-08-01T21:22:10.328Z,98898.89
2022-08-01T21:24:58.762Z,98892.41
2022-08-01T21:27:33.497Z,98892.30
2022-08-01T21:30:04.860Z,98895.41
2022-08-01T21:32:34.368Z,98892.15
2022-08-01T21:35:03.822Z,98891.83
2022-08-01T21:37:31.738Z,98889.42
2022-08-01T21:40:09.514Z,98889.94
2022-08-01T21:42:39.660Z,98890.66
2022-08-01T21:45:09.861Z,98892.16
2022-08-01T21:47:38.253Z,98897.52
2022-08-01T21:50:06.534Z,98893.15
2022-08-01T21:52:50.530Z,98891.76
2022-08-01T21:56:14.616Z,98886.25
2022-08-01T21:58:55.018Z,98883.42
2022-08-01T22:01:50.829Z,98884.90
2022-08-01T22:04:38.571Z,98886.80
2022-08-01T22:07:11.464Z,98887.52
2022-08-01T22:09:46.000Z,98891.34
2022-08-01T22:12:17.888Z,98891.66
2022-08-01T22:14:48.947Z,98891.58
2022-08-01T22:17:24.735Z,98890.30
2022-08-01T22:19:55.509Z,98886.28
2022-08-01T22:22:44.874Z,98889.38
2022-08-01T22:25:12.501Z,98884.88
2022-08-01T22:28:06.222Z,98880.09
2022-08-01T22:30:30.395Z,98882.14
2022-08-01T22:33:15.166Z,98882.55
2022-08-01T22:35:46.763Z,98890.56
2022-08-01T22:38:17.142Z,98885.75
2022-08-01T22:41:00.936Z,98887.66
2022-08-01T22:44:00.445Z,98889.59
2022-08-01T22:46:34.085Z,98888.73
2022-08-01T22:49:11.785Z,98884.09
2022-08-01T22:51:55.375Z,98883.13
2022-08-01T22:54:36.159Z,98879.16
2022-08-01T22:57:07.576Z,98872.61
2022-08-01T22:59:59.643Z,98871.78
2022-08-01T23:02:29.136Z,98869.58
2022-08-01T23:05:04.538Z,98868.83
2022-08-01T23:07:38.889Z,98875.88
2022-08-01T23:10:07.646Z,98871.12
2022-08-01T23:12:35.139Z,98868.08
2022-08-01T23:15:02.718Z,98868.25
2022-08-01T23:17:31.603Z,98862.40
2022-08-01T23:20:01.460Z,98861.02
2022-08-01T23:22:32.221Z,98859.58
2022-08-01T23:25:05.336Z,98853.56
2022-08-01T23:27:55.738Z,98849.95
2022-08-01T23:30:31.615Z,98845.02
2022-08-01T23:32:59.654Z,98848.38
2022-08-01T23:35:27.717Z,98840.51
2022-08-01T23:38:02.840Z,98838.69
2022-08-01T23:40:35.124Z,98837.23
2022-08-01T23:43:04.423Z,98842.88
2022-08-01T23:45:36.146Z,98839.84
2022-08-01T23:48:20.317Z,98845.41
2022-08-01T23:50:47.531Z,98836.95
2022-08-01T23:53:14.735Z,98836.06
2022-08-01T23:55:43.320Z,98831.80
2022-08-01T23:58:12.004Z,98832.13
